AFR3105 LFRB-LFPG
Flight info
| Callsign | AFR3105 |
|---|---|
| Flight time | 0h 53m |
| Altitude | 32000 |
| Route | SOMEN DCT JSY UY111 INGOR/N0376F280 UM25 LUKIP |
| Aircraft | A20N/M-SDE2E3FGHIRWXY/LB1 |
Departure
| Time | 2026-05-08 11:29 |
|---|---|
| Airport | Brest Bretagne airport (LFRB) |
Arrival
| Time | 2026-05-08 12:22 |
|---|---|
| Airport | Charles de Gaulle International Airport (LFPG) |
| Time | Latitude | Longitude | Altitude | Speed | Heading |
|---|---|---|---|---|---|
| 2026-05-08 11:05 | 48.44427 | -4.42035 | 309 ft | 0 kts | 161° |
| 2026-05-08 11:20 | 48.44429 | -4.42036 | 309 ft | 1 kts | 162° |
| 2026-05-08 11:20 | 48.44443 | -4.42043 | 309 ft | 2 kts | 161° |
| 2026-05-08 11:21 | 48.44457 | -4.42050 | 309 ft | 2 kts | 162° |
| 2026-05-08 11:21 | 48.44471 | -4.42058 | 309 ft | 2 kts | 161° |
| 2026-05-08 11:21 | 48.44487 | -4.42060 | 309 ft | 2 kts | 193° |
| 2026-05-08 11:21 | 48.44501 | -4.42051 | 309 ft | 2 kts | 219° |
| 2026-05-08 11:22 | 48.44511 | -4.42034 | 310 ft | 1 kts | 245° |
| 2026-05-08 11:22 | 48.44513 | -4.42025 | 310 ft | 1 kts | 255° |
| 2026-05-08 11:22 | 48.44514 | -4.42021 | 310 ft | 0 kts | 252° |
| 2026-05-08 11:24 | 48.44512 | -4.42029 | 310 ft | 3 kts | 254° |
| 2026-05-08 11:25 | 48.44535 | -4.42085 | 309 ft | 9 kts | 335° |
| 2026-05-08 11:25 | 48.44607 | -4.42118 | 309 ft | 11 kts | 342° |
| 2026-05-08 11:25 | 48.44680 | -4.42173 | 308 ft | 12 kts | 303° |
| 2026-05-08 11:25 | 48.44681 | -4.42311 | 307 ft | 15 kts | 251° |
| 2026-05-08 11:26 | 48.44639 | -4.42483 | 304 ft | 19 kts | 251° |
| 2026-05-08 11:26 | 48.44596 | -4.42687 | 301 ft | 22 kts | 252° |
| 2026-05-08 11:26 | 48.44540 | -4.42921 | 297 ft | 24 kts | 250° |
| 2026-05-08 11:26 | 48.44487 | -4.43179 | 293 ft | 26 kts | 255° |
| 2026-05-08 11:27 | 48.44428 | -4.43442 | 289 ft | 26 kts | 250° |
| 2026-05-08 11:27 | 48.44375 | -4.43679 | 287 ft | 18 kts | 253° |
| 2026-05-08 11:27 | 48.44377 | -4.43809 | 286 ft | 7 kts | 259° |
| 2026-05-08 11:27 | 48.44342 | -4.43788 | 286 ft | 8 kts | 84° |
| 2026-05-08 11:28 | 48.44367 | -4.43709 | 287 ft | 8 kts | 72° |
| 2026-05-08 11:28 | 48.44369 | -4.43696 | 287 ft | 0 kts | 72° |
| 2026-05-08 11:28 | 48.44391 | -4.43595 | 288 ft | 39 kts | 71° |
| 2026-05-08 11:28 | 48.44557 | -4.42855 | 298 ft | 106 kts | 71° |
| 2026-05-08 11:29 | 48.44864 | -4.41527 | 331 ft | 156 kts | 73° |
| 2026-05-08 11:29 | 48.45229 | -4.39924 | 766 ft | 164 kts | 72° |
| 2026-05-08 11:29 | 48.45706 | -4.38398 | 1420 ft | 167 kts | 54° |
| 2026-05-08 11:29 | 48.46598 | -4.37201 | 1964 ft | 179 kts | 34° |
| 2026-05-08 11:30 | 48.47717 | -4.36219 | 2476 ft | 193 kts | 33° |
| 2026-05-08 11:30 | 48.48881 | -4.35137 | 3107 ft | 200 kts | 35° |
| 2026-05-08 11:30 | 48.50073 | -4.34049 | 3756 ft | 207 kts | 26° |
| 2026-05-08 11:30 | 48.51502 | -4.33680 | 4384 ft | 216 kts | 356° |
| 2026-05-08 11:31 | 48.52969 | -4.34309 | 4951 ft | 228 kts | 340° |
| 2026-05-08 11:31 | 48.54492 | -4.35123 | 5389 ft | 243 kts | 345° |
| 2026-05-08 11:31 | 48.56219 | -4.35730 | 5735 ft | 262 kts | 351° |
| 2026-05-08 11:31 | 48.58070 | -4.36210 | 6145 ft | 278 kts | 352° |
| 2026-05-08 11:32 | 48.60010 | -4.36645 | 6790 ft | 285 kts | 356° |
| 2026-05-08 11:32 | 48.61927 | -4.36250 | 7539 ft | 285 kts | 25° |
| 2026-05-08 11:32 | 48.63499 | -4.34517 | 8359 ft | 283 kts | 53° |
| 2026-05-08 11:32 | 48.64434 | -4.31938 | 9088 ft | 284 kts | 70° |
| 2026-05-08 11:33 | 48.65163 | -4.29135 | 9781 ft | 289 kts | 70° |
| 2026-05-08 11:33 | 48.65910 | -4.26281 | 10469 ft | 296 kts | 70° |
| 2026-05-08 11:33 | 48.66695 | -4.23316 | 10872 ft | 313 kts | 69° |
| 2026-05-08 11:33 | 48.67534 | -4.20183 | 11315 ft | 328 kts | 69° |
| 2026-05-08 11:34 | 48.68404 | -4.16960 | 11963 ft | 333 kts | 69° |
| 2026-05-08 11:34 | 48.69278 | -4.13730 | 12702 ft | 337 kts | 69° |
| 2026-05-08 11:34 | 48.70164 | -4.10457 | 13402 ft | 341 kts | 68° |
| 2026-05-08 11:34 | 48.71069 | -4.07110 | 14094 ft | 345 kts | 68° |
| 2026-05-08 11:35 | 48.71973 | -4.03769 | 14701 ft | 350 kts | 68° |
| 2026-05-08 11:35 | 48.72898 | -4.00349 | 15392 ft | 354 kts | 68° |
| 2026-05-08 11:35 | 48.73834 | -3.96879 | 16048 ft | 358 kts | 68° |
| 2026-05-08 11:35 | 48.74777 | -3.93377 | 16667 ft | 362 kts | 68° |
| 2026-05-08 11:36 | 48.75723 | -3.89856 | 17294 ft | 366 kts | 68° |
| 2026-05-08 11:36 | 48.76685 | -3.86272 | 17900 ft | 370 kts | 68° |
| 2026-05-08 11:36 | 48.77661 | -3.82634 | 18464 ft | 374 kts | 68° |
| 2026-05-08 11:36 | 48.78637 | -3.78988 | 19075 ft | 377 kts | 68° |
| 2026-05-08 11:37 | 48.79633 | -3.75259 | 19673 ft | 381 kts | 68° |
| 2026-05-08 11:37 | 48.80613 | -3.71580 | 20228 ft | 384 kts | 68° |
| 2026-05-08 11:37 | 48.81622 | -3.67790 | 20651 ft | 391 kts | 68° |
| 2026-05-08 11:37 | 48.82657 | -3.63895 | 21122 ft | 397 kts | 68° |
| 2026-05-08 11:38 | 48.83693 | -3.59992 | 21662 ft | 401 kts | 68° |
| 2026-05-08 11:38 | 48.84736 | -3.56054 | 22187 ft | 403 kts | 68° |
| 2026-05-08 11:38 | 48.85768 | -3.52100 | 22714 ft | 406 kts | 68° |
| 2026-05-08 11:38 | 48.86800 | -3.48051 | 23231 ft | 409 kts | 69° |
| 2026-05-08 11:39 | 48.87830 | -3.43982 | 23724 ft | 412 kts | 69° |
| 2026-05-08 11:39 | 48.88847 | -3.39958 | 24204 ft | 415 kts | 69° |
| 2026-05-08 11:39 | 48.89885 | -3.35850 | 24662 ft | 419 kts | 69° |
| 2026-05-08 11:39 | 48.90949 | -3.31638 | 25115 ft | 422 kts | 69° |
| 2026-05-08 11:40 | 48.91998 | -3.27476 | 25549 ft | 425 kts | 69° |
| 2026-05-08 11:40 | 48.93064 | -3.23238 | 25971 ft | 428 kts | 69° |
| 2026-05-08 11:40 | 48.94128 | -3.19001 | 26386 ft | 431 kts | 69° |
| 2026-05-08 11:40 | 48.95198 | -3.14736 | 26787 ft | 434 kts | 69° |
| 2026-05-08 11:41 | 48.96270 | -3.10452 | 27167 ft | 437 kts | 69° |
| 2026-05-08 11:41 | 48.97356 | -3.06111 | 27536 ft | 440 kts | 69° |
| 2026-05-08 11:41 | 48.98444 | -3.01747 | 27923 ft | 443 kts | 69° |
| 2026-05-08 11:41 | 48.99547 | -2.97315 | 28438 ft | 442 kts | 69° |
| 2026-05-08 11:42 | 49.00619 | -2.92997 | 28962 ft | 440 kts | 68° |
| 2026-05-08 11:42 | 49.01705 | -2.88616 | 29428 ft | 440 kts | 68° |
| 2026-05-08 11:42 | 49.02777 | -2.84278 | 29851 ft | 441 kts | 68° |
| 2026-05-08 11:42 | 49.03865 | -2.79875 | 30273 ft | 441 kts | 68° |
| 2026-05-08 11:43 | 49.04945 | -2.75495 | 30682 ft | 442 kts | 68° |
| 2026-05-08 11:43 | 49.06028 | -2.71101 | 31059 ft | 443 kts | 68° |
| 2026-05-08 11:43 | 49.07121 | -2.66646 | 31453 ft | 443 kts | 68° |
| 2026-05-08 11:43 | 49.08198 | -2.62255 | 31796 ft | 445 kts | 68° |
| 2026-05-08 11:44 | 49.09283 | -2.57823 | 31977 ft | 447 kts | 68° |
| 2026-05-08 11:44 | 49.11443 | -2.48961 | 31982 ft | 447 kts | 68° |
| 2026-05-08 11:45 | 49.13634 | -2.39933 | 31987 ft | 447 kts | 68° |
| 2026-05-08 11:45 | 49.15820 | -2.30895 | 31990 ft | 447 kts | 68° |
| 2026-05-08 11:46 | 49.18014 | -2.21785 | 31992 ft | 447 kts | 68° |
| 2026-05-08 11:46 | 49.20194 | -2.12688 | 31994 ft | 447 kts | 68° |
| 2026-05-08 11:47 | 49.22003 | -2.03573 | 32002 ft | 448 kts | 75° |
| 2026-05-08 11:47 | 49.23047 | -1.94332 | 32004 ft | 449 kts | 81° |
| 2026-05-08 11:48 | 49.23844 | -1.84885 | 32004 ft | 448 kts | 81° |
| 2026-05-08 11:48 | 49.24642 | -1.75381 | 32008 ft | 448 kts | 81° |
| 2026-05-08 11:49 | 49.25449 | -1.65809 | 32002 ft | 448 kts | 81° |
| 2026-05-08 11:49 | 49.26250 | -1.56243 | 32004 ft | 448 kts | 80° |
| 2026-05-08 11:50 | 49.27032 | -1.46814 | 32010 ft | 448 kts | 80° |
| 2026-05-08 11:50 | 49.27815 | -1.37315 | 32007 ft | 448 kts | 80° |
| 2026-05-08 11:51 | 49.28589 | -1.27820 | 32004 ft | 448 kts | 81° |
| 2026-05-08 11:51 | 49.29359 | -1.18262 | 32011 ft | 448 kts | 80° |
| 2026-05-08 11:52 | 49.30124 | -1.08657 | 32011 ft | 448 kts | 80° |
| 2026-05-08 11:52 | 49.30884 | -0.99026 | 32009 ft | 449 kts | 80° |
| 2026-05-08 11:53 | 49.31629 | -0.89469 | 32015 ft | 448 kts | 80° |
| 2026-05-08 11:53 | 49.32362 | -0.79967 | 32013 ft | 448 kts | 79° |
| 2026-05-08 11:54 | 49.33086 | -0.70480 | 32013 ft | 448 kts | 80° |
| 2026-05-08 11:54 | 49.33801 | -0.61060 | 32010 ft | 449 kts | 79° |
| 2026-05-08 11:55 | 49.34508 | -0.51548 | 32008 ft | 449 kts | 79° |
| 2026-05-08 11:55 | 49.34860 | -0.46807 | 31754 ft | 448 kts | 79° |
| 2026-05-08 11:55 | 49.35211 | -0.42024 | 31486 ft | 445 kts | 79° |
| 2026-05-08 11:55 | 49.35561 | -0.37210 | 31207 ft | 441 kts | 79° |
| 2026-05-08 11:56 | 49.35901 | -0.32534 | 30932 ft | 438 kts | 80° |
| 2026-05-08 11:56 | 49.36159 | -0.27764 | 30589 ft | 439 kts | 84° |
| 2026-05-08 11:56 | 49.36211 | -0.23080 | 30178 ft | 441 kts | 88° |
| 2026-05-08 11:56 | 49.36047 | -0.18249 | 29736 ft | 443 kts | 91° |
| 2026-05-08 11:57 | 49.35757 | -0.13491 | 29196 ft | 444 kts | 92° |
| 2026-05-08 11:57 | 49.35442 | -0.08680 | 28553 ft | 445 kts | 93° |
| 2026-05-08 11:57 | 49.35127 | -0.03922 | 27930 ft | 446 kts | 92° |
| 2026-05-08 11:57 | 49.34811 | 0.00897 | 27267 ft | 446 kts | 93° |
| 2026-05-08 11:58 | 49.34502 | 0.05670 | 26608 ft | 447 kts | 93° |
| 2026-05-08 11:58 | 49.34186 | 0.10525 | 25992 ft | 445 kts | 93° |
| 2026-05-08 11:58 | 49.33873 | 0.15335 | 25548 ft | 442 kts | 93° |
| 2026-05-08 11:59 | 49.33254 | 0.24773 | 24521 ft | 435 kts | 94° |
| 2026-05-08 11:59 | 49.32951 | 0.29372 | 24024 ft | 432 kts | 94° |
| 2026-05-08 11:59 | 49.32641 | 0.33998 | 23566 ft | 428 kts | 94° |
| 2026-05-08 11:59 | 49.32334 | 0.38557 | 23067 ft | 426 kts | 94° |
| 2026-05-08 12:00 | 49.32031 | 0.43057 | 22609 ft | 420 kts | 95° |
| 2026-05-08 12:00 | 49.31733 | 0.47468 | 22160 ft | 412 kts | 94° |
| 2026-05-08 12:00 | 49.31559 | 0.51790 | 21729 ft | 402 kts | 91° |
| 2026-05-08 12:00 | 49.31503 | 0.56109 | 21320 ft | 397 kts | 90° |
| 2026-05-08 12:01 | 49.31461 | 0.60327 | 20905 ft | 392 kts | 90° |
| 2026-05-08 12:01 | 49.31419 | 0.64460 | 20473 ft | 389 kts | 91° |
| 2026-05-08 12:01 | 49.31374 | 0.68630 | 20023 ft | 385 kts | 91° |
| 2026-05-08 12:01 | 49.31327 | 0.72764 | 19587 ft | 382 kts | 92° |
| 2026-05-08 12:02 | 49.31279 | 0.76764 | 19180 ft | 378 kts | 92° |
| 2026-05-08 12:02 | 49.31228 | 0.80814 | 18759 ft | 374 kts | 92° |
| 2026-05-08 12:02 | 49.31175 | 0.84850 | 18331 ft | 371 kts | 92° |
| 2026-05-08 12:02 | 49.31121 | 0.88853 | 17897 ft | 367 kts | 92° |
| 2026-05-08 12:03 | 49.31068 | 0.92699 | 17480 ft | 364 kts | 92° |
| 2026-05-08 12:03 | 49.31019 | 0.96200 | 17081 ft | 362 kts | 92° |
| 2026-05-08 12:03 | 49.30965 | 0.99978 | 16648 ft | 359 kts | 92° |
| 2026-05-08 12:03 | 49.30921 | 1.02962 | 16320 ft | 357 kts | 92° |
| 2026-05-08 12:04 | 49.30866 | 1.06652 | 15923 ft | 354 kts | 92° |
| 2026-05-08 12:04 | 49.30808 | 1.10425 | 15499 ft | 351 kts | 92° |
| 2026-05-08 12:04 | 49.30749 | 1.14204 | 15076 ft | 349 kts | 92° |
| 2026-05-08 12:04 | 49.30689 | 1.17948 | 14651 ft | 346 kts | 92° |
| 2026-05-08 12:05 | 49.30629 | 1.21646 | 14242 ft | 343 kts | 92° |
| 2026-05-08 12:05 | 49.30569 | 1.25339 | 13826 ft | 341 kts | 92° |
| 2026-05-08 12:05 | 49.30507 | 1.28962 | 13431 ft | 338 kts | 92° |
| 2026-05-08 12:05 | 49.30445 | 1.32514 | 13030 ft | 336 kts | 92° |
| 2026-05-08 12:06 | 49.30383 | 1.36088 | 12610 ft | 334 kts | 92° |
| 2026-05-08 12:06 | 49.30319 | 1.39674 | 12205 ft | 331 kts | 92° |
| 2026-05-08 12:06 | 49.30256 | 1.43178 | 11796 ft | 329 kts | 92° |
| 2026-05-08 12:06 | 49.30193 | 1.46664 | 11405 ft | 325 kts | 92° |
| 2026-05-08 12:07 | 49.30130 | 1.50036 | 11252 ft | 307 kts | 92° |
| 2026-05-08 12:07 | 49.30071 | 1.53203 | 11154 ft | 291 kts | 92° |
| 2026-05-08 12:07 | 49.30013 | 1.56243 | 11038 ft | 281 kts | 92° |
| 2026-05-08 12:07 | 49.29904 | 1.59267 | 11037 ft | 290 kts | 94° |
| 2026-05-08 12:08 | 49.29767 | 1.62391 | 11041 ft | 291 kts | 94° |
| 2026-05-08 12:08 | 49.29626 | 1.65529 | 11037 ft | 291 kts | 95° |
| 2026-05-08 12:08 | 49.29486 | 1.68651 | 11031 ft | 292 kts | 95° |
| 2026-05-08 12:08 | 49.29345 | 1.71769 | 11035 ft | 292 kts | 96° |
| 2026-05-08 12:09 | 49.28829 | 1.74794 | 11008 ft | 290 kts | 122° |
| 2026-05-08 12:09 | 49.27444 | 1.76958 | 11021 ft | 289 kts | 150° |
| 2026-05-08 12:09 | 49.25637 | 1.78224 | 10843 ft | 284 kts | 158° |
| 2026-05-08 12:09 | 49.23794 | 1.79392 | 10411 ft | 285 kts | 158° |
| 2026-05-08 12:10 | 49.21965 | 1.80578 | 10120 ft | 277 kts | 157° |
| 2026-05-08 12:10 | 49.20266 | 1.81705 | 10052 ft | 263 kts | 156° |
| 2026-05-08 12:10 | 49.18596 | 1.82820 | 9716 ft | 263 kts | 157° |
| 2026-05-08 12:10 | 49.16899 | 1.83942 | 9261 ft | 263 kts | 157° |
| 2026-05-08 12:11 | 49.15210 | 1.85045 | 8809 ft | 263 kts | 157° |
| 2026-05-08 12:11 | 49.13536 | 1.86125 | 8366 ft | 266 kts | 157° |
| 2026-05-08 12:11 | 49.11809 | 1.87224 | 7910 ft | 268 kts | 157° |
| 2026-05-08 12:11 | 49.10102 | 1.88297 | 7454 ft | 263 kts | 157° |
| 2026-05-08 12:12 | 49.08371 | 1.89115 | 7001 ft | 259 kts | 168° |
| 2026-05-08 12:12 | 49.06596 | 1.89554 | 6551 ft | 257 kts | 171° |
| 2026-05-08 12:12 | 49.04816 | 1.89908 | 6102 ft | 257 kts | 172° |
| 2026-05-08 12:12 | 49.03054 | 1.90236 | 5657 ft | 256 kts | 172° |
| 2026-05-08 12:13 | 49.01282 | 1.90562 | 5208 ft | 254 kts | 171° |
| 2026-05-08 12:13 | 48.99643 | 1.91362 | 4957 ft | 243 kts | 143° |
| 2026-05-08 12:13 | 48.98582 | 1.93202 | 4949 ft | 222 kts | 112° |
| 2026-05-08 12:13 | 48.98095 | 1.95399 | 4965 ft | 219 kts | 104° |
| 2026-05-08 12:14 | 48.97736 | 1.97631 | 4963 ft | 218 kts | 102° |
| 2026-05-08 12:14 | 48.97397 | 1.99867 | 4963 ft | 218 kts | 103° |
| 2026-05-08 12:14 | 48.97010 | 2.02102 | 4960 ft | 218 kts | 104° |
| 2026-05-08 12:14 | 48.96656 | 2.04375 | 4963 ft | 218 kts | 97° |
| 2026-05-08 12:15 | 48.96545 | 2.06665 | 4961 ft | 219 kts | 89° |
| 2026-05-08 12:15 | 48.96679 | 2.09019 | 4964 ft | 220 kts | 82° |
| 2026-05-08 12:15 | 48.96888 | 2.11298 | 4965 ft | 220 kts | 82° |
| 2026-05-08 12:15 | 48.97081 | 2.13602 | 4962 ft | 220 kts | 83° |
| 2026-05-08 12:16 | 48.97242 | 2.15916 | 4965 ft | 221 kts | 84° |
| 2026-05-08 12:16 | 48.97378 | 2.18242 | 4960 ft | 219 kts | 85° |
| 2026-05-08 12:16 | 48.97495 | 2.20511 | 4823 ft | 210 kts | 85° |
| 2026-05-08 12:16 | 48.97601 | 2.22736 | 4550 ft | 208 kts | 85° |
| 2026-05-08 12:17 | 48.97702 | 2.24926 | 4278 ft | 206 kts | 85° |
| 2026-05-08 12:17 | 48.97802 | 2.27080 | 4009 ft | 204 kts | 85° |
| 2026-05-08 12:17 | 48.97900 | 2.29198 | 3791 ft | 193 kts | 85° |
| 2026-05-08 12:17 | 48.97995 | 2.31200 | 3566 ft | 185 kts | 85° |
| 2026-05-08 12:18 | 48.98089 | 2.33131 | 3306 ft | 183 kts | 85° |
| 2026-05-08 12:18 | 48.98183 | 2.35048 | 3047 ft | 181 kts | 84° |
| 2026-05-08 12:18 | 48.98277 | 2.36952 | 2799 ft | 181 kts | 84° |
| 2026-05-08 12:18 | 48.98374 | 2.38877 | 2553 ft | 181 kts | 84° |
| 2026-05-08 12:19 | 48.98469 | 2.40743 | 2324 ft | 168 kts | 84° |
| 2026-05-08 12:19 | 48.98555 | 2.42428 | 2114 ft | 154 kts | 85° |
| 2026-05-08 12:19 | 48.98634 | 2.43990 | 1894 ft | 140 kts | 84° |
| 2026-05-08 12:19 | 48.98708 | 2.45446 | 1734 ft | 141 kts | 85° |
| 2026-05-08 12:20 | 48.98783 | 2.46947 | 1565 ft | 143 kts | 85° |
| 2026-05-08 12:20 | 48.98862 | 2.48455 | 1379 ft | 142 kts | 85° |
| 2026-05-08 12:20 | 48.98931 | 2.49938 | 1183 ft | 141 kts | 86° |
| 2026-05-08 12:20 | 48.99013 | 2.51431 | 987 ft | 141 kts | 83° |
| 2026-05-08 12:21 | 48.99105 | 2.52909 | 808 ft | 140 kts | 84° |
| 2026-05-08 12:21 | 48.99177 | 2.54387 | 639 ft | 139 kts | 86° |
| 2026-05-08 12:21 | 48.99253 | 2.55857 | 449 ft | 139 kts | 84° |
| 2026-05-08 12:21 | 48.99334 | 2.57301 | 340 ft | 130 kts | 85° |
| 2026-05-08 12:22 | 48.99385 | 2.58331 | 326 ft | 57 kts | 81° |
| 2026-05-08 12:22 | 48.99416 | 2.58902 | 319 ft | 51 kts | 83° |
| 2026-05-08 12:22 | 48.99479 | 2.59306 | 316 ft | 26 kts | 62° |
| 2026-05-08 12:22 | 48.99545 | 2.59513 | 315 ft | 18 kts | 64° |
| 2026-05-08 12:23 | 48.99593 | 2.59657 | 314 ft | 11 kts | 46° |
| 2026-05-08 12:23 | 48.99688 | 2.59689 | 315 ft | 16 kts | 355° |
| 2026-05-08 12:23 | 48.99795 | 2.59676 | 316 ft | 15 kts | 355° |
| 2026-05-08 12:23 | 48.99899 | 2.59663 | 317 ft | 14 kts | 355° |
| 2026-05-08 12:24 | 49.00000 | 2.59650 | 317 ft | 14 kts | 355° |
| 2026-05-08 12:24 | 49.00090 | 2.59640 | 322 ft | 11 kts | 355° |
| 2026-05-08 12:24 | 49.00164 | 2.59631 | 327 ft | 9 kts | 354° |
| 2026-05-08 12:24 | 49.00233 | 2.59622 | 327 ft | 10 kts | 355° |
| 2026-05-08 12:25 | 49.00315 | 2.59610 | 327 ft | 13 kts | 354° |
| 2026-05-08 12:25 | 49.00405 | 2.59599 | 328 ft | 12 kts | 355° |
| 2026-05-08 12:25 | 49.00490 | 2.59588 | 330 ft | 12 kts | 355° |
| 2026-05-08 12:25 | 49.00634 | 2.59571 | 330 ft | 20 kts | 353° |
| 2026-05-08 12:26 | 49.00751 | 2.59559 | 331 ft | 15 kts | 355° |
| 2026-05-08 12:26 | 49.00851 | 2.59546 | 333 ft | 14 kts | 354° |
| 2026-05-08 12:26 | 49.00951 | 2.59534 | 333 ft | 14 kts | 352° |
| 2026-05-08 12:26 | 49.01001 | 2.59431 | 333 ft | 13 kts | 263° |
| 2026-05-08 12:27 | 49.00992 | 2.59289 | 333 ft | 14 kts | 264° |
| 2026-05-08 12:27 | 49.00985 | 2.59138 | 333 ft | 14 kts | 264° |
| 2026-05-08 12:27 | 49.00962 | 2.58987 | 333 ft | 14 kts | 252° |
| 2026-05-08 12:27 | 49.00945 | 2.58845 | 335 ft | 13 kts | 265° |
| 2026-05-08 12:28 | 49.00938 | 2.58688 | 335 ft | 16 kts | 266° |
| 2026-05-08 12:28 | 49.00929 | 2.58506 | 335 ft | 18 kts | 265° |
| 2026-05-08 12:28 | 49.00921 | 2.58330 | 335 ft | 7 kts | 264° |
| 2026-05-08 12:28 | 49.00887 | 2.58264 | 334 ft | 10 kts | 197° |
| 2026-05-08 12:29 | 49.00824 | 2.58205 | 336 ft | 11 kts | 250° |
| 2026-05-08 12:29 | 49.00814 | 2.58073 | 336 ft | 13 kts | 265° |
| 2026-05-08 12:29 | 49.00806 | 2.57929 | 336 ft | 14 kts | 265° |
| 2026-05-08 12:29 | 49.00799 | 2.57786 | 336 ft | 13 kts | 265° |
| 2026-05-08 12:30 | 49.00767 | 2.57679 | 335 ft | 10 kts | 213° |
| 2026-05-08 12:30 | 49.00692 | 2.57667 | 334 ft | 10 kts | 174° |
| 2026-05-08 12:30 | 49.00648 | 2.57679 | 333 ft | 5 kts | 142° |
| 2026-05-08 12:30 | 49.00635 | 2.57733 | 333 ft | 3 kts | 100° |
| 2026-05-08 12:31 | 49.00633 | 2.57751 | 333 ft | 0 kts | 99° |